sensor_id;sensor_type;location;lat;lon;timestamp;P1;durP1;ratioP1;P2;durP2;ratioP2
67902;SDS011;54708;43.612;1.568;2024-02-16T00:00:01;6.20;;;2.40;;
67902;SDS011;54708;43.612;1.568;2024-02-16T00:02:28;9.13;;;2.75;;
67902;SDS011;54708;43.612;1.568;2024-02-16T00:04:53;10.45;;;3.92;;
67902;SDS011;54708;43.612;1.568;2024-02-16T00:07:19;8.40;;;2.53;;
67902;SDS011;54708;43.612;1.568;2024-02-16T00:09:44;7.15;;;2.33;;
67902;SDS011;54708;43.612;1.568;2024-02-16T00:12:09;8.10;;;2.88;;
67902;SDS011;54708;43.612;1.568;2024-02-16T00:14:36;10.13;;;3.72;;
67902;SDS011;54708;43.612;1.568;2024-02-16T00:17:01;7.03;;;2.58;;
67902;SDS011;54708;43.612;1.568;2024-02-16T00:19:27;10.18;;;2.75;;
67902;SDS011;54708;43.612;1.568;2024-02-16T00:21:52;4.95;;;2.60;;
67902;SDS011;54708;43.612;1.568;2024-02-16T00:24:18;7.40;;;2.17;;
67902;SDS011;54708;43.612;1.568;2024-02-16T00:26:43;6.88;;;2.35;;
67902;SDS011;54708;43.612;1.568;2024-02-16T00:29:10;8.65;;;3.20;;
67902;SDS011;54708;43.612;1.568;2024-02-16T00:31:36;10.60;;;3.55;;
67902;SDS011;54708;43.612;1.568;2024-02-16T00:34:01;9.13;;;2.45;;
67902;SDS011;54708;43.612;1.568;2024-02-16T00:36:26;16.65;;;3.22;;
67902;SDS011;54708;43.612;1.568;2024-02-16T00:38:52;9.43;;;2.40;;
67902;SDS011;54708;43.612;1.568;2024-02-16T00:41:22;9.48;;;2.97;;
67902;SDS011;54708;43.612;1.568;2024-02-16T00:43:48;8.43;;;3.38;;
67902;SDS011;54708;43.612;1.568;2024-02-16T00:46:13;12.80;;;4.05;;
67902;SDS011;54708;43.612;1.568;2024-02-16T00:48:39;8.55;;;4.72;;
67902;SDS011;54708;43.612;1.568;2024-02-16T00:51:04;9.48;;;3.58;;
67902;SDS011;54708;43.612;1.568;2024-02-16T00:53:29;10.68;;;3.63;;
67902;SDS011;54708;43.612;1.568;2024-02-16T00:55:55;9.68;;;3.88;;
67902;SDS011;54708;43.612;1.568;2024-02-16T00:58:20;9.85;;;4.43;;
67902;SDS011;54708;43.612;1.568;2024-02-16T01:00:46;11.45;;;4.18;;
67902;SDS011;54708;43.612;1.568;2024-02-16T01:03:11;7.07;;;3.05;;
67902;SDS011;54708;43.612;1.568;2024-02-16T01:05:39;14.43;;;3.55;;
67902;SDS011;54708;43.612;1.568;2024-02-16T01:08:07;9.95;;;4.22;;
67902;SDS011;54708;43.612;1.568;2024-02-16T01:10:33;9.52;;;3.13;;
67902;SDS011;54708;43.612;1.568;2024-02-16T01:12:59;14.10;;;3.58;;
67902;SDS011;54708;43.612;1.568;2024-02-16T01:15:24;7.30;;;2.92;;
67902;SDS011;54708;43.612;1.568;2024-02-16T01:17:50;11.43;;;2.95;;
67902;SDS011;54708;43.612;1.568;2024-02-16T01:20:15;6.35;;;2.40;;
67902;SDS011;54708;43.612;1.568;2024-02-16T01:22:41;8.25;;;3.13;;
67902;SDS011;54708;43.612;1.568;2024-02-16T01:25:07;10.05;;;4.68;;
67902;SDS011;54708;43.612;1.568;2024-02-16T01:27:33;10.43;;;4.55;;
67902;SDS011;54708;43.612;1.568;2024-02-16T01:29:59;10.40;;;4.40;;
67902;SDS011;54708;43.612;1.568;2024-02-16T01:32:25;7.28;;;3.42;;
67902;SDS011;54708;43.612;1.568;2024-02-16T01:34:51;8.93;;;2.92;;
67902;SDS011;54708;43.612;1.568;2024-02-16T01:37:16;8.48;;;3.28;;
67902;SDS011;54708;43.612;1.568;2024-02-16T01:39:41;8.55;;;2.28;;
67902;SDS011;54708;43.612;1.568;2024-02-16T01:42:07;8.32;;;2.92;;
67902;SDS011;54708;43.612;1.568;2024-02-16T01:44:32;7.80;;;2.53;;
67902;SDS011;54708;43.612;1.568;2024-02-16T01:46:58;10.32;;;2.95;;
67902;SDS011;54708;43.612;1.568;2024-02-16T01:49:23;14.05;;;3.50;;
67902;SDS011;54708;43.612;1.568;2024-02-16T01:51:49;8.80;;;3.22;;
67902;SDS011;54708;43.612;1.568;2024-02-16T01:54:14;11.88;;;3.30;;
67902;SDS011;54708;43.612;1.568;2024-02-16T01:56:42;11.00;;;3.92;;
67902;SDS011;54708;43.612;1.568;2024-02-16T01:59:08;11.23;;;3.30;;
67902;SDS011;54708;43.612;1.568;2024-02-16T02:01:33;9.23;;;2.75;;
67902;SDS011;54708;43.612;1.568;2024-02-16T02:03:58;6.32;;;2.70;;
67902;SDS011;54708;43.612;1.568;2024-02-16T02:06:24;9.48;;;3.63;;
67902;SDS011;54708;43.612;1.568;2024-02-16T02:08:50;7.57;;;3.05;;
67902;SDS011;54708;43.612;1.568;2024-02-16T02:11:15;9.18;;;2.70;;
67902;SDS011;54708;43.612;1.568;2024-02-16T02:13:40;8.55;;;2.88;;
67902;SDS011;54708;43.612;1.568;2024-02-16T02:16:06;8.65;;;3.53;;
67902;SDS011;54708;43.612;1.568;2024-02-16T02:18:32;8.90;;;2.25;;
67902;SDS011;54708;43.612;1.568;2024-02-16T02:20:57;9.82;;;2.80;;
67902;SDS011;54708;43.612;1.568;2024-02-16T02:23:23;6.80;;;2.85;;
67902;SDS011;54708;43.612;1.568;2024-02-16T02:25:48;6.03;;;3.55;;
67902;SDS011;54708;43.612;1.568;2024-02-16T02:28:15;7.30;;;2.60;;
67902;SDS011;54708;43.612;1.568;2024-02-16T02:30:41;8.93;;;3.05;;
67902;SDS011;54708;43.612;1.568;2024-02-16T02:33:07;13.27;;;4.00;;
67902;SDS011;54708;43.612;1.568;2024-02-16T02:35:34;5.13;;;2.50;;
67902;SDS011;54708;43.612;1.568;2024-02-16T02:37:59;13.68;;;3.20;;
67902;SDS011;54708;43.612;1.568;2024-02-16T02:40:25;9.98;;;3.28;;
67902;SDS011;54708;43.612;1.568;2024-02-16T02:42:50;10.13;;;2.72;;
67902;SDS011;54708;43.612;1.568;2024-02-16T02:45:16;12.15;;;2.97;;
67902;SDS011;54708;43.612;1.568;2024-02-16T02:47:41;9.60;;;2.97;;
67902;SDS011;54708;43.612;1.568;2024-02-16T02:50:07;8.85;;;2.50;;
67902;SDS011;54708;43.612;1.568;2024-02-16T02:52:33;9.68;;;2.80;;
67902;SDS011;54708;43.612;1.568;2024-02-16T02:54:58;10.30;;;2.58;;
67902;SDS011;54708;43.612;1.568;2024-02-16T02:57:24;7.43;;;3.22;;
67902;SDS011;54708;43.612;1.568;2024-02-16T02:59:49;9.30;;;2.70;;
67902;SDS011;54708;43.612;1.568;2024-02-16T03:02:14;15.77;;;3.38;;
67902;SDS011;54708;43.612;1.568;2024-02-16T03:04:40;12.88;;;2.95;;
67902;SDS011;54708;43.612;1.568;2024-02-16T03:07:05;16.90;;;2.65;;
67902;SDS011;54708;43.612;1.568;2024-02-16T03:09:31;10.23;;;3.08;;
67902;SDS011;54708;43.612;1.568;2024-02-16T03:11:56;10.60;;;3.80;;
67902;SDS011;54708;43.612;1.568;2024-02-16T03:14:21;11.13;;;2.55;;
67902;SDS011;54708;43.612;1.568;2024-02-16T03:16:47;17.75;;;4.55;;
67902;SDS011;54708;43.612;1.568;2024-02-16T03:19:13;13.90;;;3.10;;
67902;SDS011;54708;43.612;1.568;2024-02-16T03:21:38;7.60;;;2.97;;
67902;SDS011;54708;43.612;1.568;2024-02-16T03:24:03;6.45;;;2.78;;
67902;SDS011;54708;43.612;1.568;2024-02-16T03:26:29;15.55;;;5.13;;
67902;SDS011;54708;43.612;1.568;2024-02-16T03:28:54;11.43;;;2.92;;
67902;SDS011;54708;43.612;1.568;2024-02-16T03:31:22;7.15;;;2.95;;
67902;SDS011;54708;43.612;1.568;2024-02-16T03:33:48;11.45;;;4.78;;
67902;SDS011;54708;43.612;1.568;2024-02-16T03:36:14;6.00;;;2.50;;
67902;SDS011;54708;43.612;1.568;2024-02-16T03:38:43;9.60;;;2.78;;
67902;SDS011;54708;43.612;1.568;2024-02-16T03:41:15;15.00;;;3.72;;
67902;SDS011;54708;43.612;1.568;2024-02-16T03:43:43;5.18;;;2.65;;
67902;SDS011;54708;43.612;1.568;2024-02-16T03:46:09;12.32;;;4.60;;
67902;SDS011;54708;43.612;1.568;2024-02-16T03:48:34;8.75;;;3.30;;
67902;SDS011;54708;43.612;1.568;2024-02-16T03:51:00;8.18;;;3.10;;
67902;SDS011;54708;43.612;1.568;2024-02-16T03:53:26;10.20;;;4.00;;
67902;SDS011;54708;43.612;1.568;2024-02-16T03:55:51;9.65;;;2.35;;
67902;SDS011;54708;43.612;1.568;2024-02-16T03:58:16;7.82;;;3.92;;
67902;SDS011;54708;43.612;1.568;2024-02-16T04:00:42;8.15;;;5.13;;
67902;SDS011;54708;43.612;1.568;2024-02-16T04:03:07;8.73;;;2.60;;
67902;SDS011;54708;43.612;1.568;2024-02-16T04:05:34;12.90;;;4.65;;
67902;SDS011;54708;43.612;1.568;2024-02-16T04:08:00;7.07;;;3.13;;
67902;SDS011;54708;43.612;1.568;2024-02-16T04:10:27;9.13;;;3.17;;
67902;SDS011;54708;43.612;1.568;2024-02-16T04:12:53;6.03;;;3.45;;
67902;SDS011;54708;43.612;1.568;2024-02-16T04:15:19;7.70;;;3.10;;
67902;SDS011;54708;43.612;1.568;2024-02-16T04:17:44;11.73;;;3.50;;
67902;SDS011;54708;43.612;1.568;2024-02-16T04:20:09;6.07;;;2.90;;
67902;SDS011;54708;43.612;1.568;2024-02-16T04:22:36;9.90;;;4.53;;
67902;SDS011;54708;43.612;1.568;2024-02-16T04:25:02;10.38;;;3.40;;
67902;SDS011;54708;43.612;1.568;2024-02-16T04:27:31;12.32;;;3.60;;
67902;SDS011;54708;43.612;1.568;2024-02-16T04:29:56;14.82;;;3.20;;
67902;SDS011;54708;43.612;1.568;2024-02-16T04:32:22;16.92;;;4.50;;
67902;SDS011;54708;43.612;1.568;2024-02-16T04:34:50;7.95;;;3.03;;
67902;SDS011;54708;43.612;1.568;2024-02-16T04:37:17;8.57;;;3.58;;
67902;SDS011;54708;43.612;1.568;2024-02-16T04:39:43;10.75;;;3.53;;
67902;SDS011;54708;43.612;1.568;2024-02-16T04:42:09;8.02;;;3.53;;
67902;SDS011;54708;43.612;1.568;2024-02-16T04:44:38;8.90;;;3.40;;
67902;SDS011;54708;43.612;1.568;2024-02-16T04:47:04;7.45;;;3.20;;
67902;SDS011;54708;43.612;1.568;2024-02-16T04:49:29;14.43;;;3.35;;
67902;SDS011;54708;43.612;1.568;2024-02-16T04:51:55;14.88;;;3.72;;
67902;SDS011;54708;43.612;1.568;2024-02-16T04:54:20;15.20;;;3.85;;
67902;SDS011;54708;43.612;1.568;2024-02-16T04:56:46;18.67;;;3.85;;
67902;SDS011;54708;43.612;1.568;2024-02-16T04:59:11;8.88;;;3.53;;
67902;SDS011;54708;43.612;1.568;2024-02-16T05:01:36;7.70;;;3.42;;
67902;SDS011;54708;43.612;1.568;2024-02-16T05:04:02;15.23;;;4.18;;
67902;SDS011;54708;43.612;1.568;2024-02-16T05:06:27;13.68;;;3.17;;
67902;SDS011;54708;43.612;1.568;2024-02-16T05:08:53;9.55;;;4.80;;
67902;SDS011;54708;43.612;1.568;2024-02-16T05:11:18;8.25;;;3.50;;
67902;SDS011;54708;43.612;1.568;2024-02-16T05:13:44;11.75;;;3.55;;
67902;SDS011;54708;43.612;1.568;2024-02-16T05:16:10;9.60;;;3.10;;
67902;SDS011;54708;43.612;1.568;2024-02-16T05:18:36;8.25;;;3.60;;
67902;SDS011;54708;43.612;1.568;2024-02-16T05:21:02;9.55;;;3.55;;
67902;SDS011;54708;43.612;1.568;2024-02-16T05:23:27;3.53;;;2.90;;
67902;SDS011;54708;43.612;1.568;2024-02-16T05:25:53;13.45;;;3.95;;
67902;SDS011;54708;43.612;1.568;2024-02-16T05:28:19;10.27;;;3.45;;
67902;SDS011;54708;43.612;1.568;2024-02-16T05:30:45;10.57;;;3.97;;
67902;SDS011;54708;43.612;1.568;2024-02-16T05:33:10;13.45;;;3.60;;
67902;SDS011;54708;43.612;1.568;2024-02-16T05:35:36;11.45;;;4.55;;
67902;SDS011;54708;43.612;1.568;2024-02-16T05:38:04;10.40;;;4.03;;
67902;SDS011;54708;43.612;1.568;2024-02-16T05:40:32;10.07;;;4.28;;
67902;SDS011;54708;43.612;1.568;2024-02-16T05:43:09;10.02;;;4.85;;
67902;SDS011;54708;43.612;1.568;2024-02-16T05:45:34;12.95;;;5.85;;
67902;SDS011;54708;43.612;1.568;2024-02-16T05:48:00;14.02;;;4.65;;
67902;SDS011;54708;43.612;1.568;2024-02-16T05:50:25;8.82;;;5.82;;
67902;SDS011;54708;43.612;1.568;2024-02-16T05:52:51;13.13;;;6.10;;
67902;SDS011;54708;43.612;1.568;2024-02-16T05:55:17;6.95;;;4.97;;
67902;SDS011;54708;43.612;1.568;2024-02-16T05:57:44;10.15;;;5.55;;
67902;SDS011;54708;43.612;1.568;2024-02-16T06:00:09;10.35;;;5.90;;
67902;SDS011;54708;43.612;1.568;2024-02-16T06:02:35;13.05;;;5.53;;
67902;SDS011;54708;43.612;1.568;2024-02-16T06:05:02;15.00;;;6.38;;
67902;SDS011;54708;43.612;1.568;2024-02-16T06:07:27;12.95;;;6.22;;
67902;SDS011;54708;43.612;1.568;2024-02-16T06:09:54;10.07;;;5.75;;
67902;SDS011;54708;43.612;1.568;2024-02-16T06:12:20;12.40;;;6.10;;
67902;SDS011;54708;43.612;1.568;2024-02-16T06:14:45;11.75;;;6.35;;
67902;SDS011;54708;43.612;1.568;2024-02-16T06:17:11;14.85;;;7.55;;
67902;SDS011;54708;43.612;1.568;2024-02-16T06:19:39;12.63;;;6.90;;
67902;SDS011;54708;43.612;1.568;2024-02-16T06:22:05;13.40;;;6.95;;
67902;SDS011;54708;43.612;1.568;2024-02-16T06:24:30;14.73;;;7.65;;
67902;SDS011;54708;43.612;1.568;2024-02-16T06:26:56;17.85;;;8.25;;
67902;SDS011;54708;43.612;1.568;2024-02-16T06:29:21;14.68;;;6.93;;
67902;SDS011;54708;43.612;1.568;2024-02-16T06:31:47;11.85;;;7.38;;
67902;SDS011;54708;43.612;1.568;2024-02-16T06:34:13;8.20;;;6.18;;
67902;SDS011;54708;43.612;1.568;2024-02-16T06:36:38;11.18;;;6.07;;
67902;SDS011;54708;43.612;1.568;2024-02-16T06:39:04;9.85;;;5.60;;
67902;SDS011;54708;43.612;1.568;2024-02-16T06:41:29;8.45;;;5.78;;
67902;SDS011;54708;43.612;1.568;2024-02-16T06:43:54;6.18;;;5.22;;
67902;SDS011;54708;43.612;1.568;2024-02-16T06:46:20;7.90;;;5.00;;
67902;SDS011;54708;43.612;1.568;2024-02-16T06:48:45;7.57;;;4.80;;
67902;SDS011;54708;43.612;1.568;2024-02-16T06:51:10;9.57;;;4.97;;
67902;SDS011;54708;43.612;1.568;2024-02-16T06:53:36;6.53;;;4.28;;
67902;SDS011;54708;43.612;1.568;2024-02-16T06:56:01;11.30;;;5.57;;
67902;SDS011;54708;43.612;1.568;2024-02-16T06:58:28;8.05;;;4.43;;
67902;SDS011;54708;43.612;1.568;2024-02-16T07:00:53;6.13;;;3.75;;
67902;SDS011;54708;43.612;1.568;2024-02-16T07:03:19;8.25;;;4.18;;
67902;SDS011;54708;43.612;1.568;2024-02-16T07:05:45;9.63;;;4.70;;
67902;SDS011;54708;43.612;1.568;2024-02-16T07:08:10;6.10;;;4.32;;
67902;SDS011;54708;43.612;1.568;2024-02-16T07:10:35;13.00;;;4.53;;
67902;SDS011;54708;43.612;1.568;2024-02-16T07:13:01;6.93;;;4.00;;
67902;SDS011;54708;43.612;1.568;2024-02-16T07:15:26;5.35;;;3.72;;
67902;SDS011;54708;43.612;1.568;2024-02-16T07:17:52;5.70;;;4.47;;
67902;SDS011;54708;43.612;1.568;2024-02-16T07:20:18;5.10;;;3.80;;
67902;SDS011;54708;43.612;1.568;2024-02-16T07:22:43;9.55;;;3.53;;
67902;SDS011;54708;43.612;1.568;2024-02-16T07:25:11;6.93;;;3.88;;
67902;SDS011;54708;43.612;1.568;2024-02-16T07:27:37;7.85;;;3.60;;
67902;SDS011;54708;43.612;1.568;2024-02-16T07:30:03;6.47;;;3.65;;
67902;SDS011;54708;43.612;1.568;2024-02-16T07:32:29;7.82;;;4.53;;
67902;SDS011;54708;43.612;1.568;2024-02-16T07:34:54;8.88;;;5.20;;
67902;SDS011;54708;43.612;1.568;2024-02-16T07:37:20;10.02;;;5.20;;
67902;SDS011;54708;43.612;1.568;2024-02-16T07:39:45;7.13;;;5.32;;
67902;SDS011;54708;43.612;1.568;2024-02-16T07:42:10;13.65;;;6.35;;
67902;SDS011;54708;43.612;1.568;2024-02-16T07:44:37;10.35;;;6.82;;
67902;SDS011;54708;43.612;1.568;2024-02-16T07:47:03;12.70;;;7.72;;
67902;SDS011;54708;43.612;1.568;2024-02-16T07:49:29;7.78;;;5.95;;
67902;SDS011;54708;43.612;1.568;2024-02-16T07:51:54;8.85;;;6.65;;
67902;SDS011;54708;43.612;1.568;2024-02-16T07:54:20;14.65;;;6.78;;
67902;SDS011;54708;43.612;1.568;2024-02-16T07:56:45;8.55;;;5.90;;
67902;SDS011;54708;43.612;1.568;2024-02-16T07:59:11;10.77;;;7.65;;
67902;SDS011;54708;43.612;1.568;2024-02-16T08:01:36;8.20;;;6.68;;
67902;SDS011;54708;43.612;1.568;2024-02-16T08:04:02;8.65;;;5.97;;
67902;SDS011;54708;43.612;1.568;2024-02-16T08:06:27;7.78;;;5.97;;
67902;SDS011;54708;43.612;1.568;2024-02-16T08:08:53;12.73;;;5.25;;
67902;SDS011;54708;43.612;1.568;2024-02-16T08:11:19;9.85;;;5.75;;
67902;SDS011;54708;43.612;1.568;2024-02-16T08:13:45;6.20;;;4.70;;
67902;SDS011;54708;43.612;1.568;2024-02-16T08:16:10;9.05;;;5.13;;
67902;SDS011;54708;43.612;1.568;2024-02-16T08:18:35;6.97;;;5.05;;
67902;SDS011;54708;43.612;1.568;2024-02-16T08:21:01;10.82;;;5.40;;
67902;SDS011;54708;43.612;1.568;2024-02-16T08:23:27;7.72;;;4.60;;
67902;SDS011;54708;43.612;1.568;2024-02-16T08:25:52;7.35;;;4.78;;
67902;SDS011;54708;43.612;1.568;2024-02-16T08:28:18;7.35;;;4.97;;
67902;SDS011;54708;43.612;1.568;2024-02-16T08:30:43;7.13;;;4.70;;
67902;SDS011;54708;43.612;1.568;2024-02-16T08:33:09;7.30;;;5.22;;
67902;SDS011;54708;43.612;1.568;2024-02-16T08:35:35;8.30;;;4.88;;
67902;SDS011;54708;43.612;1.568;2024-02-16T08:38:00;8.70;;;5.28;;
67902;SDS011;54708;43.612;1.568;2024-02-16T08:40:26;6.38;;;4.88;;
67902;SDS011;54708;43.612;1.568;2024-02-16T08:42:51;4.97;;;3.70;;
67902;SDS011;54708;43.612;1.568;2024-02-16T08:45:16;5.43;;;2.90;;
67902;SDS011;54708;43.612;1.568;2024-02-16T08:47:43;5.53;;;3.30;;
67902;SDS011;54708;43.612;1.568;2024-02-16T08:50:09;3.72;;;2.92;;
67902;SDS011;54708;43.612;1.568;2024-02-16T08:52:36;4.15;;;3.35;;
67902;SDS011;54708;43.612;1.568;2024-02-16T08:55:01;4.95;;;2.58;;
67902;SDS011;54708;43.612;1.568;2024-02-16T08:57:27;5.00;;;2.40;;
67902;SDS011;54708;43.612;1.568;2024-02-16T08:59:52;4.88;;;2.58;;
67902;SDS011;54708;43.612;1.568;2024-02-16T09:02:18;6.07;;;2.70;;
67902;SDS011;54708;43.612;1.568;2024-02-16T09:04:43;3.67;;;2.58;;
67902;SDS011;54708;43.612;1.568;2024-02-16T09:07:10;6.80;;;2.83;;
67902;SDS011;54708;43.612;1.568;2024-02-16T09:09:36;4.35;;;2.67;;
67902;SDS011;54708;43.612;1.568;2024-02-16T09:12:01;5.55;;;2.95;;
67902;SDS011;54708;43.612;1.568;2024-02-16T09:14:27;3.97;;;2.35;;
67902;SDS011;54708;43.612;1.568;2024-02-16T09:16:52;4.18;;;2.60;;
67902;SDS011;54708;43.612;1.568;2024-02-16T09:19:17;4.60;;;2.22;;
67902;SDS011;54708;43.612;1.568;2024-02-16T09:21:44;6.47;;;3.00;;
67902;SDS011;54708;43.612;1.568;2024-02-16T09:24:10;4.82;;;2.30;;
67902;SDS011;54708;43.612;1.568;2024-02-16T09:26:39;5.45;;;2.60;;
67902;SDS011;54708;43.612;1.568;2024-02-16T09:29:05;4.97;;;2.42;;
67902;SDS011;54708;43.612;1.568;2024-02-16T09:31:31;7.47;;;3.10;;
67902;SDS011;54708;43.612;1.568;2024-02-16T09:33:57;5.90;;;2.20;;
67902;SDS011;54708;43.612;1.568;2024-02-16T09:36:22;6.75;;;2.30;;
67902;SDS011;54708;43.612;1.568;2024-02-16T09:38:48;9.93;;;2.45;;
67902;SDS011;54708;43.612;1.568;2024-02-16T09:41:13;11.55;;;2.65;;
67902;SDS011;54708;43.612;1.568;2024-02-16T09:43:41;4.47;;;2.13;;
67902;SDS011;54708;43.612;1.568;2024-02-16T09:46:07;6.72;;;2.33;;
67902;SDS011;54708;43.612;1.568;2024-02-16T09:48:33;7.70;;;2.35;;
67902;SDS011;54708;43.612;1.568;2024-02-16T09:50:59;7.00;;;1.90;;
67902;SDS011;54708;43.612;1.568;2024-02-16T09:53:25;3.97;;;1.83;;
67902;SDS011;54708;43.612;1.568;2024-02-16T09:55:53;6.50;;;2.67;;
67902;SDS011;54708;43.612;1.568;2024-02-16T09:58:19;5.97;;;2.72;;
67902;SDS011;54708;43.612;1.568;2024-02-16T10:00:51;5.15;;;3.65;;
67902;SDS011;54708;43.612;1.568;2024-02-16T10:03:36;6.10;;;3.92;;
67902;SDS011;54708;43.612;1.568;2024-02-16T10:06:05;10.15;;;5.68;;
67902;SDS011;54708;43.612;1.568;2024-02-16T10:08:31;10.90;;;6.22;;
67902;SDS011;54708;43.612;1.568;2024-02-16T10:11:03;9.15;;;4.70;;
67902;SDS011;54708;43.612;1.568;2024-02-16T10:13:30;11.13;;;4.43;;
67902;SDS011;54708;43.612;1.568;2024-02-16T10:16:08;8.13;;;4.10;;
67902;SDS011;54708;43.612;1.568;2024-02-16T10:18:38;8.63;;;2.75;;
67902;SDS011;54708;43.612;1.568;2024-02-16T10:21:03;8.57;;;2.53;;
67902;SDS011;54708;43.612;1.568;2024-02-16T10:23:29;5.50;;;2.67;;
67902;SDS011;54708;43.612;1.568;2024-02-16T10:25:55;12.02;;;3.65;;
67902;SDS011;54708;43.612;1.568;2024-02-16T10:28:20;9.23;;;2.83;;
67902;SDS011;54708;43.612;1.568;2024-02-16T10:30:52;5.28;;;2.80;;
67902;SDS011;54708;43.612;1.568;2024-02-16T10:33:22;4.38;;;3.00;;
67902;SDS011;54708;43.612;1.568;2024-02-16T10:35:49;8.60;;;3.25;;
67902;SDS011;54708;43.612;1.568;2024-02-16T10:38:15;7.18;;;2.42;;
67902;SDS011;54708;43.612;1.568;2024-02-16T10:40:41;9.13;;;3.78;;
67902;SDS011;54708;43.612;1.568;2024-02-16T10:43:07;5.70;;;2.38;;
67902;SDS011;54708;43.612;1.568;2024-02-16T10:45:34;11.02;;;3.85;;
67902;SDS011;54708;43.612;1.568;2024-02-16T10:48:01;11.10;;;3.58;;
67902;SDS011;54708;43.612;1.568;2024-02-16T10:50:28;13.10;;;3.03;;
67902;SDS011;54708;43.612;1.568;2024-02-16T10:52:53;9.95;;;2.10;;
67902;SDS011;54708;43.612;1.568;2024-02-16T10:55:20;12.88;;;3.42;;
67902;SDS011;54708;43.612;1.568;2024-02-16T10:57:45;19.55;;;2.97;;
67902;SDS011;54708;43.612;1.568;2024-02-16T11:00:11;8.18;;;2.47;;
67902;SDS011;54708;43.612;1.568;2024-02-16T11:05:40;8.95;;;4.47;;
67902;SDS011;54708;43.612;1.568;2024-02-16T11:08:12;12.38;;;3.05;;
67902;SDS011;54708;43.612;1.568;2024-02-16T11:10:39;8.05;;;2.47;;
67902;SDS011;54708;43.612;1.568;2024-02-16T11:13:04;4.90;;;2.40;;
67902;SDS011;54708;43.612;1.568;2024-02-16T11:15:33;5.97;;;2.47;;
67902;SDS011;54708;43.612;1.568;2024-02-16T11:18:03;10.25;;;2.53;;
67902;SDS011;54708;43.612;1.568;2024-02-16T11:20:29;6.68;;;2.92;;
67902;SDS011;54708;43.612;1.568;2024-02-16T11:23:04;8.45;;;3.22;;
67902;SDS011;54708;43.612;1.568;2024-02-16T11:25:32;10.88;;;3.42;;
67902;SDS011;54708;43.612;1.568;2024-02-16T11:27:58;10.82;;;2.90;;
67902;SDS011;54708;43.612;1.568;2024-02-16T11:30:24;13.38;;;3.05;;
67902;SDS011;54708;43.612;1.568;2024-02-16T11:32:50;24.65;;;3.85;;
67902;SDS011;54708;43.612;1.568;2024-02-16T11:35:16;15.52;;;2.92;;
67902;SDS011;54708;43.612;1.568;2024-02-16T11:37:41;15.98;;;3.17;;
67902;SDS011;54708;43.612;1.568;2024-02-16T11:40:07;16.92;;;3.65;;
67902;SDS011;54708;43.612;1.568;2024-02-16T11:42:39;17.83;;;3.53;;
67902;SDS011;54708;43.612;1.568;2024-02-16T11:45:06;14.77;;;3.40;;
67902;SDS011;54708;43.612;1.568;2024-02-16T11:47:35;13.45;;;3.90;;
67902;SDS011;54708;43.612;1.568;2024-02-16T11:50:05;15.70;;;4.90;;
67902;SDS011;54708;43.612;1.568;2024-02-16T11:52:36;8.93;;;3.30;;
67902;SDS011;54708;43.612;1.568;2024-02-16T11:55:01;21.05;;;4.05;;
67902;SDS011;54708;43.612;1.568;2024-02-16T11:57:29;10.18;;;3.75;;
67902;SDS011;54708;43.612;1.568;2024-02-16T11:59:54;15.85;;;4.40;;
67902;SDS011;54708;43.612;1.568;2024-02-16T12:02:20;18.77;;;5.07;;
67902;SDS011;54708;43.612;1.568;2024-02-16T12:04:48;12.65;;;4.63;;
67902;SDS011;54708;43.612;1.568;2024-02-16T12:07:15;13.82;;;4.93;;
67902;SDS011;54708;43.612;1.568;2024-02-16T12:09:40;16.75;;;6.43;;
67902;SDS011;54708;43.612;1.568;2024-02-16T12:12:06;12.52;;;4.22;;
67902;SDS011;54708;43.612;1.568;2024-02-16T12:14:31;13.27;;;4.55;;
67902;SDS011;54708;43.612;1.568;2024-02-16T12:16:58;19.27;;;4.13;;
67902;SDS011;54708;43.612;1.568;2024-02-16T12:19:23;10.90;;;3.58;;
67902;SDS011;54708;43.612;1.568;2024-02-16T12:21:51;14.40;;;4.70;;
67902;SDS011;54708;43.612;1.568;2024-02-16T12:24:17;16.15;;;3.95;;
67902;SDS011;54708;43.612;1.568;2024-02-16T12:26:43;15.32;;;4.03;;
67902;SDS011;54708;43.612;1.568;2024-02-16T12:29:08;5.80;;;3.15;;
67902;SDS011;54708;43.612;1.568;2024-02-16T12:31:37;14.25;;;3.38;;
67902;SDS011;54708;43.612;1.568;2024-02-16T12:34:03;13.38;;;3.72;;
67902;SDS011;54708;43.612;1.568;2024-02-16T12:36:30;11.57;;;3.38;;
67902;SDS011;54708;43.612;1.568;2024-02-16T12:38:55;18.77;;;3.40;;
67902;SDS011;54708;43.612;1.568;2024-02-16T12:41:21;7.93;;;3.60;;
67902;SDS011;54708;43.612;1.568;2024-02-16T12:43:46;11.15;;;2.92;;
67902;SDS011;54708;43.612;1.568;2024-02-16T12:46:12;11.90;;;3.45;;
67902;SDS011;54708;43.612;1.568;2024-02-16T12:48:37;12.43;;;4.65;;
67902;SDS011;54708;43.612;1.568;2024-02-16T12:51:02;13.05;;;2.97;;
67902;SDS011;54708;43.612;1.568;2024-02-16T12:53:28;15.00;;;3.60;;
67902;SDS011;54708;43.612;1.568;2024-02-16T12:55:58;9.15;;;3.15;;
67902;SDS011;54708;43.612;1.568;2024-02-16T12:58:24;9.38;;;3.30;;
67902;SDS011;54708;43.612;1.568;2024-02-16T13:00:49;9.77;;;3.88;;
67902;SDS011;54708;43.612;1.568;2024-02-16T13:03:15;11.63;;;3.65;;
67902;SDS011;54708;43.612;1.568;2024-02-16T13:05:40;9.15;;;3.28;;
67902;SDS011;54708;43.612;1.568;2024-02-16T13:08:08;11.57;;;4.03;;
67902;SDS011;54708;43.612;1.568;2024-02-16T13:10:33;10.88;;;3.25;;
67902;SDS011;54708;43.612;1.568;2024-02-16T13:12:58;19.25;;;5.47;;
67902;SDS011;54708;43.612;1.568;2024-02-16T13:15:24;14.70;;;4.70;;
67902;SDS011;54708;43.612;1.568;2024-02-16T13:17:49;10.65;;;2.97;;
67902;SDS011;54708;43.612;1.568;2024-02-16T13:20:14;7.07;;;2.80;;
67902;SDS011;54708;43.612;1.568;2024-02-16T13:22:40;7.35;;;2.75;;
67902;SDS011;54708;43.612;1.568;2024-02-16T13:25:05;11.98;;;3.42;;
67902;SDS011;54708;43.612;1.568;2024-02-16T13:27:34;11.02;;;3.70;;
67902;SDS011;54708;43.612;1.568;2024-02-16T13:30:00;11.93;;;3.88;;
67902;SDS011;54708;43.612;1.568;2024-02-16T13:32:26;7.40;;;3.00;;
67902;SDS011;54708;43.612;1.568;2024-02-16T13:34:51;10.75;;;2.60;;
67902;SDS011;54708;43.612;1.568;2024-02-16T13:37:17;5.65;;;2.20;;
67902;SDS011;54708;43.612;1.568;2024-02-16T13:39:42;16.05;;;3.90;;
67902;SDS011;54708;43.612;1.568;2024-02-16T13:42:08;9.35;;;3.17;;
67902;SDS011;54708;43.612;1.568;2024-02-16T13:44:33;12.85;;;3.72;;
67902;SDS011;54708;43.612;1.568;2024-02-16T13:47:00;13.80;;;4.20;;
67902;SDS011;54708;43.612;1.568;2024-02-16T13:49:25;11.38;;;3.97;;
67902;SDS011;54708;43.612;1.568;2024-02-16T13:51:50;17.13;;;5.53;;
67902;SDS011;54708;43.612;1.568;2024-02-16T13:54:16;11.23;;;2.78;;
67902;SDS011;54708;43.612;1.568;2024-02-16T13:56:42;13.82;;;2.85;;
67902;SDS011;54708;43.612;1.568;2024-02-16T13:59:08;15.20;;;4.00;;
67902;SDS011;54708;43.612;1.568;2024-02-16T14:01:33;14.63;;;3.22;;
67902;SDS011;54708;43.612;1.568;2024-02-16T14:03:59;20.20;;;4.22;;
67902;SDS011;54708;43.612;1.568;2024-02-16T14:06:25;12.57;;;3.33;;
67902;SDS011;54708;43.612;1.568;2024-02-16T14:08:50;13.48;;;3.58;;
67902;SDS011;54708;43.612;1.568;2024-02-16T14:11:17;12.68;;;3.55;;
67902;SDS011;54708;43.612;1.568;2024-02-16T14:13:43;11.00;;;2.90;;
67902;SDS011;54708;43.612;1.568;2024-02-16T14:16:09;12.82;;;3.75;;
67902;SDS011;54708;43.612;1.568;2024-02-16T14:18:35;12.70;;;3.28;;
67902;SDS011;54708;43.612;1.568;2024-02-16T14:21:01;10.13;;;2.95;;
67902;SDS011;54708;43.612;1.568;2024-02-16T14:23:27;11.10;;;3.38;;
67902;SDS011;54708;43.612;1.568;2024-02-16T14:25:52;12.05;;;3.00;;
67902;SDS011;54708;43.612;1.568;2024-02-16T14:28:18;10.35;;;3.17;;
67902;SDS011;54708;43.612;1.568;2024-02-16T14:30:43;9.82;;;3.28;;
67902;SDS011;54708;43.612;1.568;2024-02-16T14:33:09;7.22;;;2.75;;
67902;SDS011;54708;43.612;1.568;2024-02-16T14:35:35;12.00;;;3.58;;